Time;durP1;ratioP1;P1;durP2;ratioP2;P2;SDS_P1;SDS_P2;PMS_P1;PMS_P2;Temp;Humidity;BMP_temperature;BMP_pressure;BME280_temperature;BME280_humidity;BME280_pressure;Samples;Min_cycle;Max_cycle;Signal;HPM_P1;HPM_P2
2022/10/27 00:06:12;;;;;;;92.63;32.23;;;18.30;99.90;;;;;;7755876;75;26596;-58
2022/10/27 00:16:16;;;;;;;85.63;28.77;;;18.30;99.90;;;;;;7794747;75;26314;-58
2022/10/27 00:26:21;;;;;;;96.63;30.47;;;18.30;99.90;;;;;;7764062;75;26322;-60
2022/10/27 00:36:24;;;;;;;83.83;29.20;;;18.30;99.90;;;;;;7769544;75;26312;-59
2022/10/27 00:46:33;;;;;;;86.43;28.63;;;18.20;99.90;;;;;;7823395;75;26329;-60
2022/10/27 00:56:37;;;;;;;75.10;26.60;;;18.20;99.90;;;;;;7794322;75;26309;-60
2022/10/27 01:06:39;;;;;;;69.23;22.33;;;18.20;99.90;;;;;;7784858;75;26271;-60
2022/10/27 01:16:53;;;;;;;58.10;22.07;;;18.20;99.90;;;;;;7776165;76;26251;-60
2022/10/27 01:26:59;;;;;;;44.73;18.10;;;18.20;99.90;;;;;;7757085;76;26328;-60
2022/10/27 01:37:07;;;;;;;50.50;20.73;;;17.90;99.90;;;;;;7773949;76;26309;-60
2022/10/27 01:47:11;;;;;;;52.47;19.60;;;18.00;99.90;;;;;;7725350;76;26297;-60
2022/10/27 01:57:35;;;;;;;53.63;21.53;;;18.00;99.90;;;;;;7770133;76;26357;-60
2022/10/27 02:07:49;;;;;;;42.93;17.23;;;18.00;99.90;;;;;;7767356;76;26307;-59
2022/10/27 02:17:55;;;;;;;44.67;18.47;;;18.00;99.90;;;;;;7716869;76;26291;-59
2022/10/27 02:28:00;;;;;;;31.27;13.63;;;18.00;99.90;;;;;;7710742;76;26292;-59
2022/10/27 02:38:04;;;;;;;41.00;14.53;;;17.90;99.90;;;;;;7722093;76;26435;-60
2022/10/27 02:48:06;;;;;;;33.63;11.97;;;17.90;99.90;;;;;;7761653;76;26377;-58
2022/10/27 02:58:09;;;;;;;27.20;11.53;;;17.90;99.90;;;;;;7750041;76;26304;-59
2022/10/27 03:08:12;;;;;;;27.73;12.73;;;17.90;99.90;;;;;;7772149;76;26217;-58
2022/10/27 03:18:15;;;;;;;26.23;11.57;;;17.80;99.90;;;;;;7768576;76;26298;-60
2022/10/27 03:28:17;;;;;;;25.17;9.80;;;17.80;99.90;;;;;;7761512;76;27240;-59
2022/10/27 03:38:20;;;;;;;26.43;9.00;;;17.70;99.90;;;;;;7735873;76;26315;-59
2022/10/27 03:48:22;;;;;;;20.37;9.40;;;17.80;99.90;;;;;;7769941;76;26357;-59
2022/10/27 03:58:25;;;;;;;22.17;9.23;;;17.70;99.90;;;;;;7753241;76;26800;-62
2022/10/27 04:08:27;;;;;;;20.57;7.83;;;17.70;99.90;;;;;;7741131;76;26321;-58
2022/10/27 04:18:30;;;;;;;20.03;7.73;;;17.70;99.90;;;;;;7744851;76;26299;-61
2022/10/27 04:28:33;;;;;;;15.53;7.50;;;17.60;99.90;;;;;;7754425;76;26376;-58
2022/10/27 04:38:35;;;;;;;14.40;6.70;;;17.60;99.90;;;;;;7738783;76;26361;-58
2022/10/27 04:48:38;;;;;;;16.40;7.07;;;17.60;99.90;;;;;;7760794;76;26260;-58
2022/10/27 04:58:40;;;;;;;15.90;6.97;;;17.60;99.90;;;;;;7765871;76;26749;-57
2022/10/27 05:08:43;;;;;;;18.00;6.13;;;17.50;99.90;;;;;;7767837;76;26284;-58
2022/10/27 05:18:45;;;;;;;14.30;5.60;;;17.60;99.90;;;;;;7756894;76;26749;-57
2022/10/27 05:28:48;;;;;;;10.23;5.20;;;17.50;99.90;;;;;;7736617;76;26303;-59
2022/10/27 05:38:50;;;;;;;10.60;3.70;;;17.40;99.90;;;;;;7742906;76;26283;-59
2022/10/27 05:48:53;;;;;;;7.03;2.97;;;17.40;99.90;;;;;;7736591;76;26319;-61
2022/10/27 05:58:55;;;;;;;4.70;2.10;;;17.10;99.90;;;;;;7738616;75;26205;-61
2022/10/27 06:08:58;;;;;;;6.17;2.83;;;17.20;99.90;;;;;;7741288;76;26322;-58
2022/10/27 06:19:00;;;;;;;7.60;2.90;;;17.40;99.90;;;;;;7761082;75;26832;-57
2022/10/27 06:29:03;;;;;;;7.23;2.93;;;17.30;99.90;;;;;;7763341;75;26307;-59
2022/10/27 06:39:05;;;;;;;7.50;3.13;;;17.40;99.90;;;;;;7758909;76;26282;-59
2022/10/27 06:49:08;;;;;;;9.73;3.60;;;17.40;99.90;;;;;;7776133;75;26306;-59
2022/10/27 06:59:10;;;;;;;10.00;4.20;;;17.30;99.90;;;;;;7747203;75;26332;-59
2022/10/27 07:09:13;;;;;;;23.07;8.23;;;17.30;99.90;;;;;;7743433;75;26291;-58
2022/10/27 07:19:15;;;;;;;29.80;10.87;;;17.30;99.90;;;;;;7757510;76;26255;-60
2022/10/27 07:29:18;;;;;;;26.70;11.83;;;17.30;99.90;;;;;;7758144;76;26244;-61
2022/10/27 07:39:20;;;;;;;23.03;10.27;;;17.30;99.90;;;;;;7762529;76;26295;-59
2022/10/27 07:49:23;;;;;;;44.13;16.00;;;17.00;99.90;;;;;;7747794;76;27001;-61
2022/10/27 07:59:25;;;;;;;43.37;13.20;;;17.20;99.90;;;;;;7736668;76;26336;-61
2022/10/27 08:09:28;;;;;;;37.47;12.10;;;17.30;99.90;;;;;;7741408;75;26353;-61
2022/10/27 08:19:30;;;;;;;36.93;11.73;;;17.50;99.90;;;;;;7767700;76;26251;-61
2022/10/27 08:29:33;;;;;;;36.57;15.53;;;17.70;99.90;;;;;;7773919;76;27194;-61
2022/10/27 08:39:35;;;;;;;26.30;8.73;;;18.00;99.90;;;;;;7753144;76;26306;-62
2022/10/27 08:49:44;;;;;;;22.77;8.47;;;18.20;99.90;;;;;;7756066;76;26330;-61
2022/10/27 08:59:46;;;;;;;28.50;10.93;;;18.50;99.90;;;;;;7759546;76;26318;-60
2022/10/27 09:10:01;;;;;;;29.10;9.97;;;18.60;99.90;;;;;;7717496;75;26319;-61
2022/10/27 09:20:12;;;;;;;32.97;12.77;;;18.60;99.90;;;;;;7623492;76;26257;-59
2022/10/27 09:30:15;;;;;;;14.70;4.83;;;18.80;99.90;;;;;;7618602;76;26352;-59
2022/10/27 09:40:20;;;;;;;18.47;6.07;;;18.90;99.90;;;;;;7632656;76;26357;-59
2022/10/27 09:50:25;;;;;;;17.57;5.43;;;19.10;99.90;;;;;;7632264;77;26349;-60
2022/10/27 10:00:29;;;;;;;12.83;4.23;;;19.10;99.90;;;;;;7650369;76;26934;-61
2022/10/27 10:10:32;;;;;;;12.63;4.83;;;19.10;99.90;;;;;;7658836;76;26272;-59
2022/10/27 10:20:39;;;;;;;15.40;4.57;;;19.20;99.90;;;;;;7714857;76;26381;-59
2022/10/27 10:30:43;;;;;;;12.23;3.40;;;19.20;99.90;;;;;;7722171;76;26400;-61
2022/10/27 10:40:48;;;;;;;9.13;3.40;;;19.20;99.90;;;;;;7738212;76;26244;-60
2022/10/27 10:50:52;;;;;;;14.20;4.53;;;19.20;99.90;;;;;;7713021;75;26272;-58
2022/10/27 11:01:00;;;;;;;22.07;9.27;;;19.20;99.90;;;;;;7718231;76;26701;-58
2022/10/27 11:11:06;;;;;;;27.17;9.97;;;19.20;99.90;;;;;;7682104;76;26843;-60
2022/10/27 11:21:12;;;;;;;30.67;10.10;;;19.30;99.90;;;;;;7644450;76;26759;-57
2022/10/27 11:31:20;;;;;;;33.03;13.77;;;19.30;99.90;;;;;;7649289;76;26250;-56
2022/10/27 11:41:41;;;;;;;34.93;12.00;;;19.30;99.90;;;;;;7657477;76;26794;-61
2022/10/27 11:51:58;;;;;;;31.10;10.43;;;19.30;99.90;;;;;;7643736;76;26788;-60
2022/10/27 12:02:24;;;;;;;14.10;5.17;;;19.30;99.90;;;;;;7641507;76;26907;-59
2022/10/27 12:12:36;;;;;;;18.87;6.83;;;19.50;99.90;;;;;;7484469;77;26758;-58
2022/10/27 12:22:52;;;;;;;12.70;3.70;;;19.40;99.90;;;;;;7467722;77;26376;-58
2022/10/27 12:33:04;;;;;;;11.73;4.30;;;19.50;99.90;;;;;;7530645;77;26357;-61
2022/10/27 12:43:26;;;;;;;17.10;3.50;;;19.50;99.90;;;;;;7486045;77;26336;-58
2022/10/27 12:53:55;;;;;;;12.20;3.40;;;19.50;99.90;;;;;;7497648;78;26590;-57
2022/10/27 13:04:23;;;;;;;11.13;3.83;;;19.60;99.90;;;;;;7466268;78;26586;-57
2022/10/27 13:14:48;;;;;;;17.63;7.27;;;19.50;99.90;;;;;;7658060;76;26319;-59
2022/10/27 13:24:57;;;;;;;23.90;6.63;;;19.50;99.90;;;;;;7740838;76;26911;-58
2022/10/27 13:35:05;;;;;;;14.47;6.20;;;19.50;99.90;;;;;;7719607;76;26331;-57
2022/10/27 13:45:27;;;;;;;20.00;6.27;;;19.60;99.90;;;;;;7712864;76;26392;-60
2022/10/27 13:55:34;;;;;;;18.17;5.57;;;19.60;99.90;;;;;;7697959;76;27287;-61
2022/10/27 14:05:42;;;;;;;15.40;5.23;;;19.60;99.90;;;;;;7752372;76;26839;-60
2022/10/27 14:15:46;;;;;;;11.23;3.70;;;19.60;99.90;;;;;;7693193;76;27353;-59
2022/10/27 14:25:48;;;;;;;14.43;4.70;;;19.70;99.90;;;;;;7694592;76;26339;-58
2022/10/27 14:36:05;;;;;;;7.13;4.40;;;19.70;99.90;;;;;;7737491;76;26299;-58
2022/10/27 14:46:16;;;;;;;17.17;6.13;;;19.70;99.90;;;;;;7737182;75;26322;-58
2022/10/27 14:56:25;;;;;;;9.33;3.80;;;19.70;99.90;;;;;;7724772;76;26317;-59
2022/10/27 15:06:30;;;;;;;7.80;3.77;;;19.60;99.90;;;;;;7716240;76;26302;-59
2022/10/27 15:16:34;;;;;;;12.73;4.10;;;19.60;99.90;;;;;;7751765;76;26302;-57
2022/10/27 15:26:38;;;;;;;8.27;3.60;;;19.60;99.90;;;;;;7781582;76;26279;-59
2022/10/27 15:36:41;;;;;;;9.23;4.03;;;19.50;99.90;;;;;;7775692;76;26741;-57
2022/10/27 15:46:44;;;;;;;19.03;4.30;;;19.50;99.90;;;;;;7768351;76;26263;-56
2022/10/27 15:56:53;;;;;;;11.97;4.13;;;19.50;99.90;;;;;;7777167;76;26272;-54
2022/10/27 16:07:13;;;;;;;9.10;3.83;;;19.60;99.90;;;;;;7762153;76;26252;-57
2022/10/27 16:17:18;;;;;;;44.37;4.37;;;19.50;99.90;;;;;;7674910;76;26346;-56
2022/10/27 16:27:24;;;;;;;14.13;4.00;;;19.50;99.90;;;;;;7735388;76;26602;-56
2022/10/27 16:37:35;;;;;;;6.90;3.53;;;19.50;99.90;;;;;;7733557;76;26267;-57
2022/10/27 16:47:37;;;;;;;11.80;4.40;;;19.50;99.90;;;;;;7724569;76;26405;-56
2022/10/27 16:57:40;;;;;;;7.47;4.60;;;19.40;99.90;;;;;;7728257;76;26299;-58
2022/10/27 17:07:43;;;;;;;5.80;3.87;;;19.40;99.90;;;;;;7723811;76;26299;-55
2022/10/27 17:17:45;;;;;;;10.67;4.83;;;19.40;99.90;;;;;;7753150;76;26836;-60
2022/10/27 17:27:48;;;;;;;6.80;3.73;;;19.40;99.90;;;;;;7746972;76;26287;-58
2022/10/27 17:37:50;;;;;;;8.10;3.90;;;19.40;99.90;;;;;;7746725;76;26368;-56
2022/10/27 17:47:53;;;;;;;8.80;4.20;;;19.30;99.90;;;;;;7768943;76;26377;-59
2022/10/27 17:57:55;;;;;;;10.60;4.37;;;19.30;99.90;;;;;;7743568;76;26750;-56
2022/10/27 18:07:58;;;;;;;11.00;5.00;;;19.30;99.90;;;;;;7748175;76;26287;-57
2022/10/27 18:18:01;;;;;;;9.07;4.53;;;19.30;99.90;;;;;;7721058;76;27403;-54
2022/10/27 18:28:04;;;;;;;9.33;4.30;;;19.30;99.90;;;;;;7711145;76;26322;-56
2022/10/27 18:38:06;;;;;;;8.47;3.93;;;19.30;99.90;;;;;;7723625;76;26393;-54
2022/10/27 18:48:09;;;;;;;6.07;3.70;;;19.20;99.90;;;;;;7745060;76;26777;-54
2022/10/27 18:58:12;;;;;;;11.67;3.83;;;19.30;99.90;;;;;;7732654;76;26287;-55
2022/10/27 19:08:14;;;;;;;5.37;3.53;;;19.20;99.90;;;;;;7734267;76;26404;-56
2022/10/27 19:18:17;;;;;;;6.90;3.43;;;19.20;99.90;;;;;;7778258;75;26291;-54
2022/10/27 19:28:22;;;;;;;7.57;3.87;;;19.20;99.90;;;;;;7766533;74;26339;-52
2022/10/27 19:38:35;;;;;;;7.40;3.40;;;19.20;99.90;;;;;;7765476;75;26347;-54
2022/10/27 19:48:38;;;;;;;8.87;5.03;;;19.20;99.90;;;;;;7776840;75;26573;-54
2022/10/27 19:58:41;;;;;;;12.77;4.17;;;19.20;99.90;;;;;;7766810;74;26826;-53
2022/10/27 20:08:44;;;;;;;9.13;3.87;;;19.10;99.90;;;;;;7756923;75;26745;-57
2022/10/27 20:18:47;;;;;;;6.20;3.57;;;19.10;99.90;;;;;;7751481;76;26881;-59
2022/10/27 20:28:50;;;;;;;6.20;3.27;;;19.10;99.90;;;;;;7728695;76;26272;-54
2022/10/27 20:38:52;;;;;;;5.17;3.20;;;19.10;99.90;;;;;;7726610;76;26236;-56
2022/10/27 20:48:56;;;;;;;5.70;3.63;;;19.10;99.90;;;;;;7728389;76;26260;-56
2022/10/27 20:58:59;;;;;;;6.77;3.70;;;19.00;99.90;;;;;;7738481;76;26240;-55
2022/10/27 21:09:04;;;;;;;10.43;3.73;;;19.00;99.90;;;;;;7734861;76;26252;-53
2022/10/27 21:19:08;;;;;;;7.33;3.93;;;19.00;99.90;;;;;;7780660;76;26400;-52
2022/10/27 21:29:10;;;;;;;7.60;3.50;;;19.00;99.90;;;;;;7755553;76;26270;-55
2022/10/27 21:39:13;;;;;;;6.27;4.40;;;19.00;99.90;;;;;;7765408;76;26325;-56
2022/10/27 21:49:16;;;;;;;6.03;3.23;;;18.90;99.90;;;;;;7723940;76;26388;-55
2022/10/27 21:59:18;;;;;;;5.03;3.33;;;19.00;99.90;;;;;;7749857;76;26263;-54
2022/10/27 22:09:21;;;;;;;5.57;3.33;;;19.00;99.90;;;;;;7742885;76;26256;-56
2022/10/27 22:19:23;;;;;;;4.83;3.37;;;18.90;99.90;;;;;;7768007;76;26268;-56
2022/10/27 22:29:26;;;;;;;6.13;3.50;;;18.90;99.90;;;;;;7737044;76;26702;-55
2022/10/27 22:39:28;;;;;;;6.97;3.63;;;18.90;99.90;;;;;;7737022;76;26248;-55
2022/10/27 22:49:31;;;;;;;6.47;3.40;;;18.90;99.90;;;;;;7724237;76;26728;-56
2022/10/27 22:59:33;;;;;;;5.10;3.43;;;18.90;99.90;;;;;;7731209;76;26314;-56
2022/10/27 23:09:36;;;;;;;5.70;3.43;;;18.80;99.90;;;;;;7753335;76;26248;-55
2022/10/27 23:19:38;;;;;;;10.37;3.53;;;18.80;99.90;;;;;;7756983;76;26283;-55
2022/10/27 23:29:41;;;;;;;5.27;3.10;;;18.80;99.90;;;;;;7755036;76;26749;-56
2022/10/27 23:39:43;;;;;;;6.27;3.30;;;18.80;99.90;;;;;;7742995;76;26237;-56
2022/10/27 23:49:46;;;;;;;5.43;3.73;;;18.80;99.90;;;;;;7729832;76;26762;-54
2022/10/27 23:59:48;;;;;;;4.13;2.67;;;18.80;99.90;;;;;;7712006;76;26256;-55
